Time;durP1;ratioP1;P1;durP2;ratioP2;P2;SDS_P1;SDS_P2;PMS_P1;PMS_P2;Temp;Humidity;BMP_temperature;BMP_pressure;BME280_temperature;BME280_humidity;BME280_pressure;Samples;Min_cycle;Max_cycle;Signal;HPM_P1;HPM_P2
2022/01/16 00:01:20;;;;;;;11.13;9.45;;;21.30;55.70;;;;;;4951822;28;89152;-84
2022/01/16 00:06:30;;;;;;;10.45;9.30;;;21.30;55.60;;;;;;4953104;28;87555;-83
2022/01/16 00:08:56;;;;;;;9.93;8.93;;;21.20;55.50;;;;;;4951823;28;87606;-84
2022/01/16 00:11:23;;;;;;;9.88;8.68;;;21.30;55.50;;;;;;4951729;28;88702;-82
2022/01/16 00:13:49;;;;;;;10.95;9.80;;;21.30;55.40;;;;;;4934524;28;90120;-83
2022/01/16 00:16:16;;;;;;;9.45;8.55;;;21.30;55.30;;;;;;4934794;28;88872;-83
2022/01/16 00:18:49;;;;;;;10.13;8.88;;;21.20;55.50;;;;;;4934579;28;87021;-84
2022/01/16 00:21:17;;;;;;;9.65;8.75;;;21.20;55.40;;;;;;4951007;28;88409;-82
2022/01/16 00:23:43;;;;;;;10.30;9.18;;;21.20;55.30;;;;;;4952103;28;87484;-84
2022/01/16 00:26:09;;;;;;;10.27;9.15;;;21.20;55.50;;;;;;4952134;28;88432;-84
2022/01/16 00:28:35;;;;;;;10.23;9.23;;;21.20;55.50;;;;;;4952454;28;87790;-83
2022/01/16 00:31:01;;;;;;;10.65;9.52;;;21.20;55.40;;;;;;4952632;28;87814;-83
2022/01/16 00:33:26;;;;;;;9.82;8.82;;;21.10;55.30;;;;;;4952156;28;87699;-83
2022/01/16 00:35:52;;;;;;;10.20;9.20;;;21.10;55.40;;;;;;4952136;28;88347;-84
2022/01/16 00:38:18;;;;;;;9.65;8.65;;;21.10;55.30;;;;;;4950315;28;87938;-84
2022/01/16 00:40:43;;;;;;;9.60;8.70;;;21.10;55.30;;;;;;4951811;28;87842;-83
2022/01/16 00:43:17;;;;;;;9.50;8.60;;;21.10;55.20;;;;;;4952417;28;87458;-84
2022/01/16 00:45:43;;;;;;;10.02;8.85;;;21.10;55.20;;;;;;4949853;28;87648;-84
2022/01/16 00:48:09;;;;;;;11.40;9.32;;;21.10;55.10;;;;;;4951659;28;87081;-84
2022/01/16 00:50:34;;;;;;;10.05;9.13;;;21.10;55.20;;;;;;4951356;28;89049;-84
2022/01/16 00:53:02;;;;;;;9.90;8.90;;;21.10;55.00;;;;;;4952144;28;88470;-83
2022/01/16 00:55:28;;;;;;;10.32;9.05;;;21.10;55.10;;;;;;4952226;28;86969;-84
2022/01/16 00:57:54;;;;;;;9.25;8.35;;;21.00;55.10;;;;;;4952071;28;87910;-83
2022/01/16 01:00:20;;;;;;;9.75;8.85;;;21.10;54.90;;;;;;4951280;28;87973;-84
2022/01/16 01:02:46;;;;;;;10.32;8.90;;;21.00;55.00;;;;;;4952041;28;87882;-84
2022/01/16 01:05:12;;;;;;;9.85;8.95;;;21.00;55.00;;;;;;4951597;28;87155;-84
2022/01/16 01:07:39;;;;;;;9.68;8.68;;;21.00;55.00;;;;;;4951162;28;86462;-84
2022/01/16 01:10:06;;;;;;;10.00;9.00;;;21.00;55.00;;;;;;4949437;28;87760;-83
2022/01/16 01:12:51;;;;;;;10.02;9.05;;;21.00;55.00;;;;;;4949968;28;88602;-83
2022/01/16 01:15:21;;;;;;;9.65;8.65;;;21.00;54.90;;;;;;4951328;28;87866;-84
2022/01/16 01:17:48;;;;;;;9.43;8.52;;;21.00;54.90;;;;;;4934330;28;89431;-83
2022/01/16 01:20:17;;;;;;;10.10;9.10;;;21.00;54.80;;;;;;4950524;28;88509;-83
2022/01/16 01:22:45;;;;;;;9.88;8.88;;;20.90;54.80;;;;;;4933311;28;88563;-83
2022/01/16 01:25:14;;;;;;;10.07;9.07;;;20.90;54.70;;;;;;4950633;28;88109;-84
2022/01/16 01:27:41;;;;;;;9.32;8.43;;;20.90;54.70;;;;;;4948407;28;89764;-84
2022/01/16 01:30:09;;;;;;;9.15;8.25;;;20.90;55.00;;;;;;4951353;28;87160;-84
2022/01/16 01:32:40;;;;;;;11.32;9.07;;;20.90;54.80;;;;;;4952196;28;87344;-83
2022/01/16 01:35:08;;;;;;;10.32;9.05;;;20.90;54.80;;;;;;4952222;28;86929;-84
2022/01/16 01:37:34;;;;;;;9.07;8.13;;;20.90;54.80;;;;;;4951963;28;87119;-84
2022/01/16 01:40:01;;;;;;;9.50;8.60;;;20.90;54.70;;;;;;4951771;28;88979;-84
2022/01/16 01:42:43;;;;;;;9.70;8.73;;;20.90;54.80;;;;;;4952245;28;88753;-84
2022/01/16 01:53:23;;;;;;;8.85;8.05;;;20.90;54.40;;;;;;4954955;28;87601;-84
2022/01/16 01:55:49;;;;;;;9.57;8.57;;;20.80;54.50;;;;;;4955151;28;87400;-84
2022/01/16 01:58:15;;;;;;;9.63;8.63;;;20.80;54.50;;;;;;4954248;28;89499;-84
2022/01/16 02:00:42;;;;;;;10.30;9.25;;;20.80;54.40;;;;;;4955220;28;87703;-83
2022/01/16 02:05:37;;;;;;;9.15;8.27;;;20.80;54.30;;;;;;4955096;28;88592;-85
2022/01/16 02:08:05;;;;;;;10.20;9.20;;;20.80;54.50;;;;;;4953358;28;87053;-83
2022/01/16 02:10:31;;;;;;;9.93;8.93;;;20.80;54.30;;;;;;4954149;28;87418;-83
2022/01/16 02:13:01;;;;;;;9.48;8.57;;;20.80;54.30;;;;;;4954259;28;87527;-84
2022/01/16 02:31:58;;;;;;;9.23;8.32;;;20.70;54.20;;;;;;4953858;28;89131;-83
2022/01/16 02:37:00;;;;;;;9.80;8.88;;;20.70;54.20;;;;;;4955409;28;87499;-84
2022/01/16 02:39:27;;;;;;;9.50;8.57;;;20.70;54.20;;;;;;4953922;28;87345;-84
2022/01/16 02:41:54;;;;;;;9.48;8.48;;;20.70;54.30;;;;;;4953704;28;88281;-84
2022/01/16 02:44:33;;;;;;;9.52;8.60;;;20.70;54.20;;;;;;4953786;28;87142;-83
2022/01/16 02:47:01;;;;;;;9.50;8.65;;;20.70;54.10;;;;;;4954693;28;88049;-84
2022/01/16 02:49:29;;;;;;;9.30;8.43;;;20.70;54.20;;;;;;4954312;28;86491;-83
2022/01/16 02:51:59;;;;;;;9.67;8.83;;;20.70;54.20;;;;;;4954899;28;86864;-83
2022/01/16 02:54:27;;;;;;;9.52;8.63;;;20.70;54.20;;;;;;4954487;28;87777;-83
2022/01/16 02:56:52;;;;;;;9.13;8.20;;;20.70;54.20;;;;;;4935583;28;88530;-84
2022/01/16 02:59:20;;;;;;;9.77;8.77;;;20.70;54.20;;;;;;4954275;28;88061;-83
2022/01/16 03:01:45;;;;;;;9.55;8.65;;;20.70;54.30;;;;;;4936666;28;90985;-84
2022/01/16 03:04:11;;;;;;;9.68;8.70;;;20.70;54.10;;;;;;4954122;28;89893;-84
2022/01/16 03:06:37;;;;;;;9.23;8.32;;;20.70;54.00;;;;;;4939445;28;87296;-84
2022/01/16 03:09:07;;;;;;;10.05;9.05;;;20.70;54.00;;;;;;4956817;28;87653;-83
2022/01/16 03:11:40;;;;;;;9.50;8.60;;;20.60;54.10;;;;;;4956799;28;89392;-83
2022/01/16 03:14:16;;;;;;;9.20;8.30;;;20.60;53.90;;;;;;4939528;28;88992;-83
2022/01/16 03:16:46;;;;;;;10.02;9.10;;;20.60;53.90;;;;;;4956023;28;88702;-84
2022/01/16 03:22:02;;;;;;;10.27;9.20;;;20.60;53.80;;;;;;4954804;28;88245;-84
2022/01/16 03:24:32;;;;;;;10.20;9.23;;;20.60;53.80;;;;;;4954619;28;89759;-83
2022/01/16 03:27:13;;;;;;;9.25;8.35;;;20.60;53.80;;;;;;4954974;28;86934;-83
2022/01/16 03:29:40;;;;;;;9.48;8.57;;;20.60;53.90;;;;;;4956198;28;87964;-83
2022/01/16 03:32:08;;;;;;;9.13;8.32;;;20.60;53.80;;;;;;4956218;28;87980;-84
2022/01/16 03:34:34;;;;;;;10.23;9.23;;;20.60;53.90;;;;;;4954989;28;88390;-83
2022/01/16 03:37:00;;;;;;;9.65;8.70;;;20.60;53.80;;;;;;4955204;28;87248;-84
2022/01/16 03:39:26;;;;;;;10.13;8.98;;;20.60;53.80;;;;;;4955910;28;86522;-84
2022/01/16 03:41:52;;;;;;;9.65;8.73;;;20.50;53.70;;;;;;4954578;28;87993;-84
2022/01/16 03:44:18;;;;;;;10.25;9.23;;;20.60;53.80;;;;;;4954583;28;87687;-84
2022/01/16 03:46:44;;;;;;;10.20;9.20;;;20.60;53.60;;;;;;4954513;28;88362;-84
2022/01/16 03:49:12;;;;;;;9.63;8.73;;;20.60;53.70;;;;;;4953103;28;90754;-84
2022/01/16 03:51:40;;;;;;;9.73;8.82;;;20.60;53.40;;;;;;4954449;28;87881;-83
2022/01/16 03:54:08;;;;;;;9.43;8.52;;;20.50;53.30;;;;;;4954909;28;88249;-83
2022/01/16 03:56:34;;;;;;;9.73;8.77;;;20.50;53.40;;;;;;4954942;28;87562;-84
2022/01/16 03:59:00;;;;;;;10.15;9.10;;;20.50;53.70;;;;;;4954192;28;87038;-84
2022/01/16 04:01:26;;;;;;;9.23;8.32;;;20.50;53.60;;;;;;4954160;28;87643;-84
2022/01/16 04:03:53;;;;;;;9.25;8.35;;;20.50;53.50;;;;;;4954002;28;87457;-83
2022/01/16 04:06:20;;;;;;;9.40;8.40;;;20.50;53.70;;;;;;4953771;28;87510;-83
2022/01/16 04:08:54;;;;;;;9.20;8.30;;;20.50;53.60;;;;;;4952803;28;87018;-83
2022/01/16 04:11:22;;;;;;;10.32;9.32;;;20.50;53.80;;;;;;4949686;28;91152;-83
2022/01/16 04:13:53;;;;;;;9.57;8.68;;;20.40;53.70;;;;;;4950659;28;91452;-84
2022/01/16 04:16:21;;;;;;;10.55;9.48;;;20.50;53.80;;;;;;4952246;28;87400;-84
2022/01/16 04:18:51;;;;;;;9.85;8.95;;;20.50;53.70;;;;;;4952141;28;90406;-83
2022/01/16 04:21:21;;;;;;;10.32;9.32;;;20.40;53.60;;;;;;4951594;28;88383;-84
2022/01/16 04:23:47;;;;;;;9.63;8.70;;;20.40;53.60;;;;;;4952443;28;87652;-83
2022/01/16 04:26:13;;;;;;;9.10;8.30;;;20.40;53.60;;;;;;4953319;28;87723;-84
2022/01/16 04:28:39;;;;;;;10.35;9.30;;;20.50;53.70;;;;;;4935486;28;88868;-84
2022/01/16 04:31:05;;;;;;;10.38;9.38;;;20.40;53.70;;;;;;4950736;28;89074;-83
2022/01/16 04:33:31;;;;;;;10.10;9.10;;;20.40;53.60;;;;;;4952500;28;87799;-84
2022/01/16 04:35:56;;;;;;;9.80;8.88;;;20.40;53.40;;;;;;4952097;28;88982;-83
2022/01/16 04:38:22;;;;;;;9.60;8.70;;;20.40;53.50;;;;;;4934643;28;89498;-83
2022/01/16 04:43:48;;;;;;;9.90;9.00;;;20.40;53.60;;;;;;4951759;28;87030;-83
2022/01/16 04:46:16;;;;;;;9.70;8.75;;;20.40;53.50;;;;;;4950563;28;87235;-84
2022/01/16 04:48:41;;;;;;;9.80;8.80;;;20.40;53.50;;;;;;4951383;28;87008;-84
2022/01/16 04:51:07;;;;;;;9.95;9.05;;;20.40;53.50;;;;;;4952106;28;88072;-83
2022/01/16 04:53:33;;;;;;;10.25;9.25;;;20.40;53.50;;;;;;4952003;28;87884;-83
2022/01/16 04:55:59;;;;;;;10.38;9.18;;;20.40;53.40;;;;;;4951522;28;88065;-84
2022/01/16 04:58:24;;;;;;;9.27;8.38;;;20.40;53.40;;;;;;4951261;28;87874;-83
2022/01/16 05:00:50;;;;;;;9.82;8.93;;;20.40;53.40;;;;;;4933943;28;90067;-83
2022/01/16 05:03:16;;;;;;;10.65;9.65;;;20.40;53.40;;;;;;4950949;28;90603;-84
2022/01/16 05:05:41;;;;;;;10.15;9.10;;;20.30;53.50;;;;;;4934741;28;87687;-83
2022/01/16 05:08:07;;;;;;;9.85;8.93;;;20.30;53.40;;;;;;4933820;28;88684;-84
2022/01/16 05:10:40;;;;;;;9.32;8.43;;;20.30;53.50;;;;;;4950526;28;90257;-83
2022/01/16 05:13:30;;;;;;;10.32;9.32;;;20.30;53.70;;;;;;4951687;28;88789;-84
2022/01/16 05:18:41;;;;;;;10.05;9.05;;;20.30;53.50;;;;;;4951217;28;87178;-84
2022/01/16 05:21:08;;;;;;;9.82;8.93;;;20.30;53.50;;;;;;4949893;28;87681;-84
2022/01/16 05:23:42;;;;;;;9.45;8.55;;;20.30;53.40;;;;;;4949026;28;89169;-83
2022/01/16 05:26:09;;;;;;;10.38;9.38;;;20.30;53.40;;;;;;4933201;28;88945;-83
2022/01/16 05:28:35;;;;;;;9.75;8.75;;;20.30;53.40;;;;;;4949660;28;89385;-83
2022/01/16 05:31:01;;;;;;;9.65;8.75;;;20.30;53.20;;;;;;4950940;28;87971;-84
2022/01/16 05:33:26;;;;;;;10.27;9.27;;;20.30;53.20;;;;;;4950083;28;87263;-83
2022/01/16 05:35:52;;;;;;;9.77;8.85;;;20.30;53.20;;;;;;4950794;28;87892;-84
2022/01/16 05:38:18;;;;;;;10.45;9.35;;;20.30;53.20;;;;;;4950771;28;87704;-84
2022/01/16 05:40:44;;;;;;;10.65;9.60;;;20.20;53.00;;;;;;4994376;22;88282;-84
2022/01/16 05:43:10;;;;;;;10.40;9.50;;;20.20;53.10;;;;;;4955622;28;87998;-85
2022/01/16 05:45:36;;;;;;;9.75;8.85;;;20.30;53.80;;;;;;4956948;28;87171;-85
2022/01/16 05:48:03;;;;;;;9.82;8.82;;;20.20;53.00;;;;;;4952339;28;87769;-83
2022/01/16 05:50:28;;;;;;;10.55;9.48;;;20.20;53.00;;;;;;4949988;28;90651;-86
2022/01/16 05:52:54;;;;;;;9.73;8.80;;;20.30;53.10;;;;;;4950770;28;88498;-86
2022/01/16 05:55:20;;;;;;;9.98;8.98;;;20.20;53.80;;;;;;4951161;28;88761;-86
2022/01/16 05:57:46;;;;;;;10.02;9.02;;;20.20;53.00;;;;;;4950515;28;87391;-85
2022/01/16 06:00:14;;;;;;;10.77;9.77;;;20.20;53.10;;;;;;4951307;28;87390;-85
2022/01/16 06:02:41;;;;;;;10.20;9.20;;;20.20;53.10;;;;;;4949987;28;87797;-85
2022/01/16 06:05:10;;;;;;;10.13;9.13;;;20.20;53.20;;;;;;4951920;28;87913;-86
2022/01/16 06:07:35;;;;;;;;;;;20.20;53.10;;;;;;4951993;28;87109;-86
2022/01/16 06:10:02;;;;;;;10.20;9.27;;;20.20;53.10;;;;;;4952240;28;87983;-86
2022/01/16 06:12:28;;;;;;;9.52;8.63;;;20.20;53.10;;;;;;4950111;28;87791;-86
2022/01/16 06:14:53;;;;;;;10.60;9.55;;;20.20;53.30;;;;;;4949935;28;88504;-85
2022/01/16 06:17:22;;;;;;;10.27;9.27;;;20.20;53.10;;;;;;4950135;28;87850;-85
2022/01/16 06:19:47;;;;;;;9.98;8.98;;;20.20;53.10;;;;;;4951175;28;87632;-84
2022/01/16 06:22:13;;;;;;;10.52;9.52;;;20.20;53.20;;;;;;4950786;28;87775;-86
2022/01/16 06:24:38;;;;;;;10.02;9.02;;;20.10;53.10;;;;;;4951382;28;87344;-84
2022/01/16 06:27:04;;;;;;;11.25;10.15;;;20.10;53.10;;;;;;4948510;28;89170;-85
2022/01/16 06:29:32;;;;;;;11.00;9.95;;;20.20;53.00;;;;;;4949641;28;88614;-85
2022/01/16 06:31:58;;;;;;;10.43;9.43;;;20.10;53.00;;;;;;4949776;28;90769;-85
2022/01/16 06:34:24;;;;;;;10.50;9.52;;;20.10;53.20;;;;;;4965502;28;88068;-85
2022/01/16 06:36:49;;;;;;;9.63;8.73;;;20.10;53.00;;;;;;4949890;28;86927;-84
2022/01/16 06:39:15;;;;;;;10.23;9.23;;;20.10;53.10;;;;;;4953031;28;89343;-85
2022/01/16 06:41:41;;;;;;;11.15;9.95;;;20.10;52.90;;;;;;4956908;28;87844;-85
2022/01/16 06:44:07;;;;;;;10.63;9.63;;;20.10;53.00;;;;;;4957483;28;86974;-83
2022/01/16 06:46:32;;;;;;;10.40;9.40;;;20.10;52.90;;;;;;4956984;28;88249;-85
2022/01/16 06:48:58;;;;;;;10.35;9.35;;;20.10;52.90;;;;;;4957022;28;88054;-80
2022/01/16 06:51:24;;;;;;;10.18;9.18;;;20.10;52.90;;;;;;4957223;28;87537;-85
2022/01/16 06:54:00;;;;;;;10.38;9.38;;;20.10;52.90;;;;;;4957349;28;87560;-84
2022/01/16 06:56:26;;;;;;;10.68;9.68;;;20.10;52.90;;;;;;4956033;28;87340;-84
2022/01/16 06:58:52;;;;;;;11.10;10.00;;;20.10;52.80;;;;;;4956007;28;89480;-84
2022/01/16 07:01:17;;;;;;;10.23;9.23;;;20.10;53.00;;;;;;4956643;28;88173;-84
2022/01/16 07:03:43;;;;;;;10.30;9.40;;;20.10;52.80;;;;;;4956889;28;88316;-86
2022/01/16 07:06:09;;;;;;;10.30;9.38;;;20.00;52.90;;;;;;4956719;28;87624;-85
2022/01/16 07:08:35;;;;;;;10.65;9.60;;;20.00;52.80;;;;;;4971423;28;90317;-85
2022/01/16 07:11:01;;;;;;;10.00;8.35;;;20.00;52.80;;;;;;4956562;28;87296;-85
2022/01/16 07:13:28;;;;;;;10.73;9.65;;;20.10;52.90;;;;;;4957328;28;87651;-84
2022/01/16 07:15:54;;;;;;;9.63;8.63;;;20.00;52.80;;;;;;4957059;28;87516;-81
2022/01/16 07:18:21;;;;;;;10.57;9.57;;;20.00;52.70;;;;;;4956062;28;87903;-85
2022/01/16 07:20:47;;;;;;;11.25;9.63;;;20.00;52.80;;;;;;4947177;28;90610;-85
2022/01/16 07:23:14;;;;;;;10.57;9.38;;;20.00;52.80;;;;;;4954102;28;88423;-84
2022/01/16 07:25:41;;;;;;;10.43;9.43;;;20.00;52.90;;;;;;4955934;28;87348;-88
2022/01/16 07:28:07;;;;;;;10.63;9.60;;;20.00;52.80;;;;;;4953764;28;89859;-83
2022/01/16 07:30:33;;;;;;;10.60;9.50;;;20.00;52.90;;;;;;4957196;28;88965;-84
2022/01/16 07:32:59;;;;;;;16.58;12.10;;;20.00;52.80;;;;;;4956713;28;87399;-86
2022/01/16 07:35:30;;;;;;;11.52;10.40;;;20.00;52.00;;;;;;4955794;28;87174;-83
2022/01/16 07:37:58;;;;;;;13.32;9.93;;;20.00;52.80;;;;;;4955124;28;88009;-85
2022/01/16 07:40:24;;;;;;;11.70;10.50;;;20.00;52.70;;;;;;4956076;28;87312;-82
2022/01/16 07:42:50;;;;;;;12.30;10.38;;;20.00;53.30;;;;;;4955460;28;87127;-84
2022/01/16 07:45:16;;;;;;;11.75;10.55;;;20.00;53.50;;;;;;4955789;28;87086;-81
2022/01/16 07:47:42;;;;;;;12.45;11.15;;;20.10;53.60;;;;;;4954071;28;89496;-84
2022/01/16 07:50:09;;;;;;;10.88;9.80;;;20.10;53.00;;;;;;4953036;28;88887;-85
2022/01/16 07:52:34;;;;;;;11.40;10.20;;;20.10;53.20;;;;;;4949783;28;88556;-85
2022/01/16 07:55:00;;;;;;;11.57;10.38;;;20.20;53.60;;;;;;4951756;28;87807;-85
2022/01/16 07:57:26;;;;;;;11.23;10.13;;;20.30;53.90;;;;;;4951581;28;87762;-83
2022/01/16 07:59:51;;;;;;;10.80;9.55;;;20.30;53.80;;;;;;4952530;28;87708;-86
2022/01/16 08:02:18;;;;;;;12.20;11.00;;;20.30;53.50;;;;;;4952704;28;87340;-84
2022/01/16 08:04:44;;;;;;;12.15;10.85;;;20.40;53.40;;;;;;4951817;28;87838;-85
2022/01/16 08:07:10;;;;;;;13.57;11.20;;;20.40;52.90;;;;;;4950636;28;89191;-82
2022/01/16 08:09:37;;;;;;;13.45;11.45;;;20.40;52.80;;;;;;4952228;28;87456;-84
2022/01/16 08:12:04;;;;;;;12.25;10.40;;;20.50;52.80;;;;;;4952409;28;87795;-85
2022/01/16 08:14:30;;;;;;;10.95;9.73;;;20.50;52.80;;;;;;4939514;28;89206;-83
2022/01/16 08:16:56;;;;;;;13.15;10.45;;;20.50;52.70;;;;;;4951832;28;88640;-83
2022/01/16 08:19:23;;;;;;;13.23;10.20;;;20.50;53.00;;;;;;4951992;28;87394;-84
2022/01/16 08:22:06;;;;;;;16.08;10.32;;;20.60;53.40;;;;;;4951239;28;87432;-84
2022/01/16 08:24:31;;;;;;;13.23;9.98;;;20.60;53.50;;;;;;4952117;28;87812;-85
2022/01/16 08:26:57;;;;;;;12.80;9.70;;;20.60;53.10;;;;;;4954409;28;89776;-85
2022/01/16 08:29:22;;;;;;;35.47;15.65;;;20.60;53.00;;;;;;4951775;28;87771;-83
2022/01/16 08:31:48;;;;;;;27.30;12.30;;;20.60;52.60;;;;;;4951363;28;87615;-84
2022/01/16 08:34:14;;;;;;;25.27;12.32;;;20.60;52.80;;;;;;4950455;28;86706;-84
2022/01/16 08:36:39;;;;;;;45.55;14.80;;;20.60;52.60;;;;;;4949292;28;90720;-85
2022/01/16 08:39:05;;;;;;;48.05;17.92;;;20.50;53.80;;;;;;4950723;28;87641;-85
2022/01/16 08:41:32;;;;;;;39.90;18.38;;;20.50;53.00;;;;;;4943712;28;89086;-84
2022/01/16 08:43:58;;;;;;;50.97;20.95;;;20.50;50.10;;;;;;4949731;28;87231;-80
2022/01/16 08:46:23;;;;;;;44.95;19.52;;;20.60;49.00;;;;;;4951121;28;87043;-81
2022/01/16 08:48:52;;;;;;;59.20;22.13;;;20.60;49.70;;;;;;4950624;28;87582;-82
2022/01/16 08:51:18;;;;;;;61.63;24.20;;;20.70;50.60;;;;;;4949271;28;88062;-84
2022/01/16 08:53:45;;;;;;;50.90;23.05;;;20.70;50.30;;;;;;4950019;28;87578;-80
2022/01/16 08:56:12;;;;;;;60.13;23.83;;;20.70;49.60;;;;;;4940831;28;90034;-85
2022/01/16 08:58:41;;;;;;;48.58;21.83;;;20.80;49.10;;;;;;4951078;28;87646;-83
2022/01/16 09:01:09;;;;;;;49.20;22.00;;;20.80;48.20;;;;;;4950061;28;87222;-84
2022/01/16 09:03:37;;;;;;;40.13;21.27;;;20.80;47.40;;;;;;4949988;28;87807;-81
2022/01/16 09:06:03;;;;;;;45.60;20.80;;;20.80;47.60;;;;;;4946650;28;92900;-81
2022/01/16 09:08:29;;;;;;;40.28;20.58;;;20.90;47.10;;;;;;4905304;28;89332;-82
2022/01/16 09:10:54;;;;;;;38.65;20.65;;;20.90;46.70;;;;;;4951667;28;87259;-84
2022/01/16 09:13:20;;;;;;;41.17;21.00;;;20.90;45.80;;;;;;4950318;28;87975;-85
2022/01/16 09:15:50;;;;;;;39.42;21.35;;;20.90;45.60;;;;;;4949619;28;89752;-83
2022/01/16 09:18:17;;;;;;;41.75;22.35;;;20.90;44.80;;;;;;4948880;28;87740;-82
2022/01/16 09:20:45;;;;;;;41.15;20.98;;;20.80;43.90;;;;;;4950324;28;88379;-83
2022/01/16 09:23:11;;;;;;;37.67;21.50;;;20.80;43.60;;;;;;4941132;28;88522;-83
2022/01/16 09:25:36;;;;;;;36.05;20.83;;;20.80;43.50;;;;;;4950760;28;88063;-84
2022/01/16 09:28:03;;;;;;;38.55;20.88;;;20.80;43.00;;;;;;4950503;28;88077;-83
2022/01/16 09:30:29;;;;;;;33.53;20.25;;;20.80;43.10;;;;;;4950465;28;87979;-83
2022/01/16 09:32:55;;;;;;;28.70;19.92;;;20.80;42.70;;;;;;4949916;28;87790;-80
2022/01/16 09:35:23;;;;;;;35.28;18.98;;;20.80;43.00;;;;;;4950734;28;87492;-84
2022/01/16 09:37:55;;;;;;;31.77;18.85;;;20.80;43.50;;;;;;4950002;28;87443;-82
2022/01/16 09:40:22;;;;;;;28.25;17.70;;;20.80;42.80;;;;;;4950118;28;87561;-84
2022/01/16 09:42:48;;;;;;;29.75;17.85;;;20.90;42.80;;;;;;4950352;28;87580;-82
2022/01/16 09:45:17;;;;;;;28.52;17.45;;;20.90;42.70;;;;;;4950114;28;88142;-82
2022/01/16 09:47:45;;;;;;;29.92;18.95;;;20.90;42.80;;;;;;4948804;28;88421;-85
2022/01/16 09:50:16;;;;;;;25.27;15.63;;;20.90;42.50;;;;;;4950220;28;87094;-83
2022/01/16 09:52:44;;;;;;;23.73;16.77;;;20.90;42.20;;;;;;4948180;28;89612;-84
2022/01/16 09:55:11;;;;;;;25.20;16.98;;;20.90;42.00;;;;;;4949287;28;89141;-81
2022/01/16 09:57:37;;;;;;;26.77;17.05;;;20.90;41.80;;;;;;4948836;28;89903;-83
2022/01/16 10:00:07;;;;;;;25.48;17.92;;;20.90;41.60;;;;;;4948728;28;87808;-84
2022/01/16 10:02:32;;;;;;;;;;;20.90;41.40;;;;;;4950530;28;88328;-82
2022/01/16 10:04:58;;;;;;;28.58;17.88;;;20.90;41.90;;;;;;4951783;28;89123;-83
2022/01/16 10:07:23;;;;;;;28.42;17.35;;;20.90;41.10;;;;;;4949545;28;87970;-83
2022/01/16 10:10:12;;;;;;;27.15;17.45;;;20.90;41.40;;;;;;4949503;28;87686;-83
2022/01/16 10:12:48;;;;;;;23.85;16.42;;;20.90;41.30;;;;;;4949301;28;86913;-83
2022/01/16 10:15:24;;;;;;;26.65;16.90;;;20.90;40.80;;;;;;4946285;28;90640;-83
2022/01/16 10:17:53;;;;;;;21.75;15.73;;;20.90;41.20;;;;;;4948361;28;88129;-82
2022/01/16 10:20:19;;;;;;;23.75;16.23;;;20.90;41.70;;;;;;4947014;28;88994;-84
2022/01/16 10:22:50;;;;;;;23.65;16.63;;;20.90;41.10;;;;;;4948991;28;87376;-81
2022/01/16 10:25:34;;;;;;;24.45;17.15;;;20.90;41.40;;;;;;4949509;28;88016;-80
2022/01/16 10:28:02;;;;;;;22.63;16.63;;;20.90;41.30;;;;;;4949560;28;87387;-81
2022/01/16 10:30:43;;;;;;;21.73;15.85;;;20.90;40.60;;;;;;4949655;28;87247;-80
2022/01/16 10:33:13;;;;;;;22.52;15.65;;;20.90;41.30;;;;;;4895489;28;88415;-82
2022/01/16 10:35:41;;;;;;;24.35;16.65;;;20.90;41.50;;;;;;4953111;28;87693;-82
2022/01/16 10:38:15;;;;;;;25.17;15.85;;;20.90;41.00;;;;;;4948551;28;87396;-79
2022/01/16 10:40:44;;;;;;;23.02;16.90;;;20.90;40.90;;;;;;4947744;28;87499;-82
2022/01/16 10:43:16;;;;;;;22.95;16.27;;;20.90;40.70;;;;;;4949336;28;87465;-81
2022/01/16 10:45:45;;;;;;;23.40;16.90;;;20.90;41.00;;;;;;4948201;28;88726;-79
2022/01/16 10:48:12;;;;;;;37.30;21.48;;;20.80;40.20;;;;;;4948580;28;88286;-79
2022/01/16 10:50:45;;;;;;;37.72;19.90;;;20.90;41.70;;;;;;4949770;28;88283;-82
2022/01/16 10:53:12;;;;;;;40.17;22.58;;;20.90;41.70;;;;;;4949969;28;87542;-81
2022/01/16 10:55:40;;;;;;;42.47;23.88;;;20.90;41.00;;;;;;4949469;28;88088;-80
2022/01/16 10:58:07;;;;;;;44.20;23.33;;;20.90;41.20;;;;;;4949991;28;87927;-84
2022/01/16 11:00:34;;;;;;;47.83;23.55;;;20.90;41.40;;;;;;4949840;28;87037;-81
2022/01/16 11:03:02;;;;;;;59.35;30.23;;;20.90;41.30;;;;;;4947197;28;87286;-83
2022/01/16 11:05:32;;;;;;;63.33;29.27;;;20.90;43.60;;;;;;4948624;28;88104;-82
2022/01/16 11:08:22;;;;;;;59.03;30.10;;;20.90;44.60;;;;;;4948365;28;87869;-83
2022/01/16 11:10:50;;;;;;;59.85;28.65;;;20.90;47.20;;;;;;4947347;28;88850;-83
2022/01/16 11:13:16;;;;;;;58.55;26.17;;;20.90;48.20;;;;;;4948851;28;87401;-80
2022/01/16 11:15:44;;;;;;;61.15;28.05;;;20.90;48.70;;;;;;4948506;28;87787;-81
2022/01/16 11:18:11;;;;;;;49.22;25.33;;;20.90;49.00;;;;;;4947223;28;87874;-82
2022/01/16 11:20:39;;;;;;;50.08;25.67;;;20.90;49.60;;;;;;4949052;28;87961;-83
2022/01/16 11:23:15;;;;;;;48.75;25.20;;;20.90;49.60;;;;;;4949157;28;87523;-81
2022/01/16 11:25:43;;;;;;;53.47;25.95;;;20.90;49.80;;;;;;4949613;28;87921;-84
2022/01/16 11:28:14;;;;;;;50.47;24.42;;;20.90;50.00;;;;;;4940247;28;90415;-79
2022/01/16 11:30:47;;;;;;;44.05;23.30;;;20.90;49.00;;;;;;4955150;28;87569;-84
2022/01/16 11:33:21;;;;;;;47.70;24.02;;;20.90;49.30;;;;;;4952073;28;87262;-82
2022/01/16 11:36:28;;;;;;;39.58;22.27;;;20.90;49.70;;;;;;4950305;28;91298;-84
2022/01/16 11:39:09;;;;;;;36.22;20.02;;;20.90;49.30;;;;;;4937118;28;88877;-81
2022/01/16 11:41:40;;;;;;;42.75;22.83;;;20.90;48.20;;;;;;4935593;28;88131;-82
2022/01/16 11:44:43;;;;;;;42.53;22.38;;;20.90;48.20;;;;;;4929669;28;89763;-84
2022/01/16 11:47:15;;;;;;;40.42;21.75;;;20.90;48.00;;;;;;4951529;28;87991;-85
2022/01/16 11:49:42;;;;;;;40.47;22.42;;;20.90;48.50;;;;;;4937086;28;90751;-84
2022/01/16 11:52:21;;;;;;;35.55;21.40;;;20.90;49.10;;;;;;4952401;28;86889;-85
2022/01/16 11:54:49;;;;;;;39.78;20.80;;;20.90;49.20;;;;;;4952592;28;86193;-84
2022/01/16 11:57:30;;;;;;;41.85;20.35;;;20.90;49.50;;;;;;4951071;28;87573;-83
2022/01/16 12:00:15;;;;;;;40.88;21.02;;;20.90;50.10;;;;;;4951332;28;87920;-85
2022/01/16 12:02:58;;;;;;;38.20;21.15;;;20.90;50.90;;;;;;4950726;28;88744;-85
2022/01/16 12:05:26;;;;;;;42.88;20.50;;;20.90;51.20;;;;;;4951155;28;87738;-84
2022/01/16 12:07:57;;;;;;;40.65;21.73;;;20.90;52.50;;;;;;4951190;28;88651;-84
2022/01/16 12:10:40;;;;;;;37.60;20.52;;;20.80;52.50;;;;;;4951838;28;87721;-84
2022/01/16 12:13:12;;;;;;;36.15;19.63;;;20.80;51.50;;;;;;4952548;28;87385;-82
2022/01/16 12:15:37;;;;;;;36.42;19.08;;;20.90;51.90;;;;;;4952769;28;87158;-82
2022/01/16 12:18:03;;;;;;;38.80;18.48;;;20.90;52.50;;;;;;4949662;28;87734;-83
2022/01/16 12:20:30;;;;;;;35.67;21.42;;;20.90;51.50;;;;;;4950942;28;87940;-82
2022/01/16 12:23:04;;;;;;;33.60;20.17;;;20.90;50.00;;;;;;4948725;28;87422;-82
2022/01/16 12:25:48;;;;;;;33.17;18.52;;;20.90;49.80;;;;;;4948656;28;87522;-84
2022/01/16 12:28:15;;;;;;;29.98;16.95;;;20.90;51.20;;;;;;4952745;28;92050;-81
2022/01/16 12:30:52;;;;;;;33.90;17.98;;;20.90;51.40;;;;;;4949716;28;89121;-82
2022/01/16 12:33:38;;;;;;;29.45;16.83;;;20.90;51.40;;;;;;4949681;28;88997;-81
2022/01/16 12:36:12;;;;;;;29.42;16.73;;;20.90;51.50;;;;;;4951816;28;87939;-86
2022/01/16 12:39:03;;;;;;;30.73;17.90;;;20.90;51.40;;;;;;4951178;28;88237;-85
2022/01/16 12:41:41;;;;;;;32.60;17.08;;;20.90;51.40;;;;;;4950063;28;87467;-86
2022/01/16 12:44:16;;;;;;;28.23;16.48;;;20.90;51.50;;;;;;4948979;28;87921;-84
2022/01/16 12:46:42;;;;;;;29.50;15.95;;;20.90;51.40;;;;;;4949232;28;87345;-82
2022/01/16 12:49:27;;;;;;;27.17;15.25;;;20.90;51.50;;;;;;4950094;28;87784;-84
2022/01/16 12:51:55;;;;;;;25.77;16.00;;;20.90;51.50;;;;;;4946277;28;87898;-81
2022/01/16 12:54:25;;;;;;;27.88;15.73;;;20.90;51.40;;;;;;4947865;28;88615;-85
2022/01/16 12:57:02;;;;;;;27.67;16.45;;;20.80;51.40;;;;;;4949987;28;87512;-83
2022/01/16 12:59:32;;;;;;;31.27;15.98;;;20.90;51.20;;;;;;4950578;28;87735;-85
2022/01/16 13:02:01;;;;;;;30.50;16.25;;;20.90;51.30;;;;;;4950212;28;87336;-79
2022/01/16 13:04:27;;;;;;;27.35;15.88;;;20.90;51.20;;;;;;4950807;28;88330;-84
2022/01/16 13:06:57;;;;;;;24.30;15.05;;;20.90;51.30;;;;;;4950992;28;87399;-84
2022/01/16 13:09:28;;;;;;;29.25;15.80;;;20.90;51.40;;;;;;4951134;28;87708;-84
2022/01/16 13:11:58;;;;;;;27.00;16.45;;;20.90;51.60;;;;;;4951607;28;87251;-84
2022/01/16 13:14:26;;;;;;;25.30;14.70;;;20.90;51.50;;;;;;4950684;28;88087;-82
2022/01/16 13:16:54;;;;;;;28.05;15.50;;;20.90;51.50;;;;;;4941298;28;89594;-85
2022/01/16 13:19:52;;;;;;;23.92;14.45;;;20.90;51.30;;;;;;4949978;28;88966;-83
2022/01/16 13:22:38;;;;;;;27.15;14.40;;;20.90;51.50;;;;;;4951124;28;87641;-85
2022/01/16 13:25:07;;;;;;;28.20;14.13;;;20.90;51.70;;;;;;4950563;28;87588;-81